New Lyme, Ohio
Current Conditions -  °F | °C
As of 10:53 PM on Friday 19 Dec 2014 (Local Time) from KHZY Reporting Station
Overcast Overcast  
Wind Chill: 24°   Ceiling: 2600
Heat Index: 29°   Visibility: 10mi
Dew Point: 20°   Wind: 5mph
Humidity: 69%   Direction: 280°W
Pressure: 30.27"   Gusts: NA
Location:  41.6051°N, 80.867°W
Report Text: KHZY 200353Z AUTO 28004KT 10SM OVC026 M02/M07 A3027 RMK AO2 SLP261 T10171067
Loading
Personal Weather Stations






























Interactive Weather Map New forecast layout! Learn more

10-Day Weather Forecast

Advertisements
Track Severe Weather on mobile